CheckWX is a tool to help pilots better visualize weather data.  It is not intended as a substitute for an official pre-flight weather briefing.

19:00:32 UTC

K6P9 METAR
Ranger Airport
Ranger, Texas, USA
Current

46 mins ago

K6P9 191815Z AUTO 10007KT 2 1/2SM BR OVC004 02/02 A3002 RMK AO2 T00150015
Observed
Feb-19 @ 18:15 UTC
Wind
  • 100° at 7 KTS
Visibility
2 1/2 SM
Flight Rules
LIFR
Conditions
Mist
Cloud Levels
  • Overcast at 400' AGL
Temperature
C / 36°F
Dewpoint
C / 36°F
Humidity
100%
Altimeter
30.02" Hg
Pressure
1016.62 hPa
Previous

1 hour ago

K6P9 191755Z AUTO 09007KT 4SM BR BKN004 OVC008 02/02 A3004 RMK AO2 60008 T00150015 10018 20010
Observed
Feb-19 @ 17:55 UTC
Wind
  • 090° at 7 KTS
Visibility
4 SM
Flight Rules
LIFR
Conditions
Mist
Cloud Levels
  • Broken at 400' AGL
  • Overcast at 800' AGL
Temperature
C / 36°F
Dewpoint
C / 36°F
Humidity
100%
Altimeter
30.04" Hg
Pressure
1017.32 hPa
Previous

1 hour ago

K6P9 191735Z AUTO 10007KT 7SM OVC004 02/02 A3007 RMK AO2 T00150015
Observed
Feb-19 @ 17:35 UTC
Wind
  • 100° at 7 KTS
Visibility
7 SM
Flight Rules
LIFR
Cloud Levels
  • Overcast at 400' AGL
Temperature
C / 36°F
Dewpoint
C / 36°F
Humidity
100%
Altimeter
30.07" Hg
Pressure
1018.32 hPa